TimeMDT,TemperatureF,Dew PointF,Humidity,Sea Level PressureIn,VisibilityMPH,Wind Direction,Wind SpeedMPH,Gust SpeedMPH,PrecipitationIn,Events,Conditions,WindDirDegrees,DateUTC
12:53 AM,26.1,10.0,51,29.94,10.0,West,19.6,-,N/A,,Clear,260,2013-03-18 06:53:00
1:53 AM,26.1,9.0,49,29.95,10.0,West,21.9,31.1,N/A,,Clear,260,2013-03-18 07:53:00
2:53 AM,25.0,9.0,51,29.98,10.0,West,17.3,24.2,N/A,,Clear,260,2013-03-18 08:53:00
3:53 AM,21.0,9.0,60,29.99,10.0,WSW,12.7,-,N/A,,Partly Cloudy,250,2013-03-18 09:53:00
4:53 AM,24.1,8.1,51,29.97,10.0,WSW,16.1,-,N/A,,Partly Cloudy,250,2013-03-18 10:53:00
5:53 AM,21.0,8.1,57,29.98,10.0,WNW,10.4,-,N/A,,Scattered Clouds,290,2013-03-18 11:53:00
6:53 AM,25.0,9.0,51,29.98,10.0,WSW,15.0,-,N/A,,Mostly Cloudy,240,2013-03-18 12:53:00
7:53 AM,26.1,8.1,47,29.97,10.0,WSW,23.0,27.6,N/A,,Overcast,250,2013-03-18 13:53:00
8:53 AM,27.0,10.0,49,29.98,10.0,SW,27.6,33.4,N/A,,Overcast,230,2013-03-18 14:53:00
9:53 AM,28.0,10.9,49,29.98,10.0,WSW,17.3,29.9,N/A,,Overcast,240,2013-03-18 15:53:00
10:53 AM,28.9,12.0,49,29.97,10.0,SW,21.9,29.9,N/A,,Overcast,220,2013-03-18 16:53:00
11:53 AM,30.9,10.0,42,29.94,10.0,West,26.5,35.7,N/A,,Mostly Cloudy,260,2013-03-18 17:53:00
12:53 PM,33.1,14.0,46,29.90,10.0,WSW,35.7,42.6,N/A,,Partly Cloudy,240,2013-03-18 18:53:00
1:53 PM,35.1,15.1,44,29.89,10.0,West,33.4,44.9,N/A,,Partly Cloudy,260,2013-03-18 19:53:00
2:53 PM,32.0,16.0,52,29.91,10.0,WNW,9.2,27.6,N/A,,Overcast,300,2013-03-18 20:53:00
3:53 PM,36.0,10.9,36,29.87,10.0,West,24.2,34.5,N/A,,Overcast,260,2013-03-18 21:53:00
4:53 PM,37.0,14.0,39,29.88,10.0,West,32.2,40.3,N/A,,Overcast,260,2013-03-18 22:53:00
5:53 PM,34.0,14.0,44,29.92,10.0,WSW,17.3,-,N/A,,Overcast,250,2013-03-18 23:53:00
6:53 PM,33.1,12.0,42,29.95,10.0,WNW,16.1,25.3,N/A,,Overcast,290,2013-03-19 00:53:00
7:04 PM,30.2,15.8,55,29.84,10.0,NW,19.6,33.4,N/A,,Overcast,310,2013-03-19 01:04:00
7:53 PM,30.0,17.1,59,29.98,10.0,NW,13.8,-,0.00,,Mostly Cloudy,320,2013-03-19 01:53:00
8:53 PM,28.0,14.0,56,29.99,10.0,West,8.1,-,N/A,,Partly Cloudy,260,2013-03-19 02:53:00
9:53 PM,28.9,19.0,67,30.01,9.0,NW,15.0,25.3,0.00,Snow,Light Snow,310,2013-03-19 03:53:00
10:03 PM,28.4,17.6,64,29.90,9.0,NNW,9.2,21.9,0.00,,Mostly Cloudy,330,2013-03-19 04:03:00
10:10 PM,26.6,17.6,69,29.91,10.0,NNW,8.1,-,0.00,,Mostly Cloudy,330,2013-03-19 04:10:00
10:53 PM,26.1,17.1,69,30.02,10.0,South,3.5,-,0.00,,Scattered Clouds,190,2013-03-19 04:53:00
11:53 PM,26.1,17.1,69,30.02,10.0,NW,3.5,-,N/A,,Overcast,310,2013-03-19 05:53:00